sensor_id;sensor_type;location;lat;lon;timestamp;pressure;altitude;pressure_sealevel;temperature;humidity
30714;BME280;17465;47.934;33.430;2023-02-17T00:02:14;57377.03;;;-140.43;75.77
30714;BME280;17465;47.934;33.430;2023-02-17T00:04:45;57377.03;;;-140.43;75.77
30714;BME280;17465;47.934;33.430;2023-02-17T00:07:15;57373.85;;;-140.43;74.99
30714;BME280;17465;47.934;33.430;2023-02-17T00:09:46;57386.56;;;-140.43;75.38
30714;BME280;17465;47.934;33.430;2023-02-17T00:12:17;57395.03;;;-140.43;75.54
30714;BME280;17465;47.934;33.430;2023-02-17T00:14:49;57380.21;;;-140.43;75.83
30714;BME280;17465;47.934;33.430;2023-02-17T00:17:19;57367.50;;;-140.43;75.77
30714;BME280;17465;47.934;33.430;2023-02-17T00:19:57;57367.50;;;-140.43;75.77
30714;BME280;17465;47.934;33.430;2023-02-17T00:22:27;57370.68;;;-140.43;76.15
30714;BME280;17465;47.934;33.430;2023-02-17T00:24:57;57370.68;;;-140.43;76.15
30714;BME280;17465;47.934;33.430;2023-02-17T00:27:28;57363.26;;;-140.43;76.14
30714;BME280;17465;47.934;33.430;2023-02-17T00:29:58;57363.26;;;-140.43;76.14
30714;BME280;17465;47.934;33.430;2023-02-17T00:32:29;57382.32;;;-140.43;76.03
30714;BME280;17465;47.934;33.430;2023-02-17T00:35:00;57387.62;;;-140.43;76.14
30714;BME280;17465;47.934;33.430;2023-02-17T00:37:34;57387.62;;;-140.43;76.14
30714;BME280;17465;47.934;33.430;2023-02-17T00:40:06;57370.68;;;-140.43;76.49
30714;BME280;17465;47.934;33.430;2023-02-17T00:42:37;57390.80;;;-140.43;76.36
30714;BME280;17465;47.934;33.430;2023-02-17T00:45:08;57390.80;;;-140.43;76.36
30714;BME280;17465;47.934;33.430;2023-02-17T00:47:38;57377.03;;;-140.43;77.91
30714;BME280;17465;47.934;33.430;2023-02-17T00:50:09;57377.03;;;-140.43;77.91
30714;BME280;17465;47.934;33.430;2023-02-17T00:52:39;57371.73;;;-140.43;77.08
30714;BME280;17465;47.934;33.430;2023-02-17T00:55:10;57390.80;;;-140.43;77.50
30714;BME280;17465;47.934;33.430;2023-02-17T00:57:40;57390.80;;;-140.43;77.50
30714;BME280;17465;47.934;33.430;2023-02-17T01:00:11;57355.85;;;-140.43;77.73
30714;BME280;17465;47.934;33.430;2023-02-17T01:02:42;57388.68;;;-140.43;77.98
30714;BME280;17465;47.934;33.430;2023-02-17T01:05:13;57379.15;;;-140.43;77.81
30714;BME280;17465;47.934;33.430;2023-02-17T01:07:43;57379.15;;;-140.43;77.81
30714;BME280;17465;47.934;33.430;2023-02-17T01:10:14;57380.21;;;-140.43;78.44
30714;BME280;17465;47.934;33.430;2023-02-17T01:12:46;57392.91;;;-140.43;78.73
30714;BME280;17465;47.934;33.430;2023-02-17T01:15:16;57373.85;;;-140.43;78.52
30714;BME280;17465;47.934;33.430;2023-02-17T01:17:48;57372.79;;;-140.43;78.68
30714;BME280;17465;47.934;33.430;2023-02-17T01:20:19;57368.55;;;-140.43;79.31
30714;BME280;17465;47.934;33.430;2023-02-17T01:22:50;57368.55;;;-140.43;79.31
30714;BME280;17465;47.934;33.430;2023-02-17T01:25:20;57383.38;;;-140.43;80.83
30714;BME280;17465;47.934;33.430;2023-02-17T01:27:51;57372.79;;;-140.43;80.05
30714;BME280;17465;47.934;33.430;2023-02-17T01:30:21;57361.14;;;-140.43;80.83
30714;BME280;17465;47.934;33.430;2023-02-17T01:32:52;57361.14;;;-140.43;80.83
30714;BME280;17465;47.934;33.430;2023-02-17T01:35:22;57359.03;;;-140.43;80.89
30714;BME280;17465;47.934;33.430;2023-02-17T01:37:53;57359.03;;;-140.43;80.89
30714;BME280;17465;47.934;33.430;2023-02-17T01:40:23;57365.38;;;-140.43;81.05
30714;BME280;17465;47.934;33.430;2023-02-17T01:42:54;57353.73;;;-140.43;80.80
30714;BME280;17465;47.934;33.430;2023-02-17T01:54:03;57397.15;;;-140.43;80.74
30714;BME280;17465;47.934;33.430;2023-02-17T01:56:35;57357.96;;;-140.43;79.48
30714;BME280;17465;47.934;33.430;2023-02-17T01:59:09;57383.38;;;-140.43;80.83
30714;BME280;17465;47.934;33.430;2023-02-17T02:01:39;57383.38;;;-140.43;80.83
30714;BME280;17465;47.934;33.430;2023-02-17T02:04:11;57382.32;;;-140.43;81.78
30714;BME280;17465;47.934;33.430;2023-02-17T02:06:44;57370.68;;;-140.43;81.82
30714;BME280;17465;47.934;33.430;2023-02-17T02:09:37;57373.85;;;-140.43;80.35
30714;BME280;17465;47.934;33.430;2023-02-17T02:12:21;57373.85;;;-140.43;80.35
30714;BME280;17465;47.934;33.430;2023-02-17T02:14:55;57365.38;;;-140.43;80.70
30714;BME280;17465;47.934;33.430;2023-02-17T02:18:01;57365.38;;;-140.43;80.70
30714;BME280;17465;47.934;33.430;2023-02-17T02:20:41;57369.62;;;-140.43;81.25
30714;BME280;17465;47.934;33.430;2023-02-17T02:35:08;57361.14;;;-140.43;81.91
30714;BME280;17465;47.934;33.430;2023-02-17T02:40:32;57359.03;;;-140.43;82.59
30714;BME280;17465;47.934;33.430;2023-02-17T02:43:03;57386.56;;;-140.43;82.62
30714;BME280;17465;47.934;33.430;2023-02-17T02:45:36;57360.08;;;-140.43;82.50
30714;BME280;17465;47.934;33.430;2023-02-17T02:48:07;57383.38;;;-140.43;82.55
30714;BME280;17465;47.934;33.430;2023-02-17T02:51:09;57383.38;;;-140.43;82.55
30714;BME280;17465;47.934;33.430;2023-02-17T03:02:24;57364.32;;;-140.43;83.22
30714;BME280;17465;47.934;33.430;2023-02-17T03:07:57;57383.38;;;-140.43;83.52
30714;BME280;17465;47.934;33.430;2023-02-17T03:10:27;57392.91;;;-140.43;83.88
30714;BME280;17465;47.934;33.430;2023-02-17T03:13:03;57367.50;;;-140.43;83.86
30714;BME280;17465;47.934;33.430;2023-02-17T03:15:34;57377.03;;;-140.43;84.25
30714;BME280;17465;47.934;33.430;2023-02-17T03:18:05;57377.03;;;-140.43;84.25
30714;BME280;17465;47.934;33.430;2023-02-17T03:20:44;57356.91;;;-140.43;84.25
30714;BME280;17465;47.934;33.430;2023-02-17T03:23:16;57397.15;;;-140.43;84.35
30714;BME280;17465;47.934;33.430;2023-02-17T03:25:47;57400.33;;;-140.43;84.40
30714;BME280;17465;47.934;33.430;2023-02-17T03:28:18;57400.33;;;-140.43;84.40
30714;BME280;17465;47.934;33.430;2023-02-17T03:30:48;57384.44;;;-140.43;84.58
30714;BME280;17465;47.934;33.430;2023-02-17T03:33:19;57379.15;;;-140.43;84.42
30714;BME280;17465;47.934;33.430;2023-02-17T03:35:50;57366.44;;;-140.43;85.61
30714;BME280;17465;47.934;33.430;2023-02-17T03:38:20;57371.73;;;-140.43;85.69
30714;BME280;17465;47.934;33.430;2023-02-17T03:40:51;57371.73;;;-140.43;85.69
30714;BME280;17465;47.934;33.430;2023-02-17T03:43:21;57382.32;;;-140.43;86.13
30714;BME280;17465;47.934;33.430;2023-02-17T03:45:52;57388.68;;;-140.43;86.35
30714;BME280;17465;47.934;33.430;2023-02-17T03:48:22;57372.79;;;-140.43;86.46
30714;BME280;17465;47.934;33.430;2023-02-17T03:50:53;57380.21;;;-140.43;87.13
30714;BME280;17465;47.934;33.430;2023-02-17T03:53:24;57401.39;;;-140.43;87.48
30714;BME280;17465;47.934;33.430;2023-02-17T03:55:54;57401.39;;;-140.43;87.48
30714;BME280;17465;47.934;33.430;2023-02-17T03:58:24;57402.45;;;-140.43;87.78
30714;BME280;17465;47.934;33.430;2023-02-17T04:00:55;57402.45;;;-140.43;87.78
30714;BME280;17465;47.934;33.430;2023-02-17T04:03:25;57392.91;;;-140.43;87.92
30714;BME280;17465;47.934;33.430;2023-02-17T04:05:56;57370.68;;;-140.43;88.40
30714;BME280;17465;47.934;33.430;2023-02-17T04:08:27;57370.68;;;-140.43;88.40
30714;BME280;17465;47.934;33.430;2023-02-17T04:11:01;57392.91;;;-140.43;88.79
30714;BME280;17465;47.934;33.430;2023-02-17T04:13:32;57363.26;;;-140.43;89.30
30714;BME280;17465;47.934;33.430;2023-02-17T04:16:04;57386.56;;;-140.43;90.11
30714;BME280;17465;47.934;33.430;2023-02-17T04:18:36;57386.56;;;-140.43;90.11
30714;BME280;17465;47.934;33.430;2023-02-17T04:21:07;57365.38;;;-140.43;89.83
30714;BME280;17465;47.934;33.430;2023-02-17T04:23:38;57382.32;;;-140.43;90.63
30714;BME280;17465;47.934;33.430;2023-02-17T04:26:08;57377.03;;;-140.43;90.83
30714;BME280;17465;47.934;33.430;2023-02-17T04:28:41;57405.62;;;-140.43;90.96
30714;BME280;17465;47.934;33.430;2023-02-17T04:31:11;57359.03;;;-140.43;90.94
30714;BME280;17465;47.934;33.430;2023-02-17T04:33:42;57360.08;;;-140.43;91.24
30714;BME280;17465;47.934;33.430;2023-02-17T04:36:12;57375.97;;;-140.43;91.44
30714;BME280;17465;47.934;33.430;2023-02-17T04:38:43;57375.97;;;-140.43;91.44
30714;BME280;17465;47.934;33.430;2023-02-17T04:41:13;57368.55;;;-140.43;91.83
30714;BME280;17465;47.934;33.430;2023-02-17T04:43:44;57398.21;;;-140.43;91.71
30714;BME280;17465;47.934;33.430;2023-02-17T04:46:15;57367.50;;;-140.43;91.64
30714;BME280;17465;47.934;33.430;2023-02-17T04:48:45;57353.73;;;-140.43;91.10
30714;BME280;17465;47.934;33.430;2023-02-17T04:51:16;57391.86;;;-140.43;91.27
30714;BME280;17465;47.934;33.430;2023-02-17T04:53:46;57360.08;;;-140.43;92.32
30714;BME280;17465;47.934;33.430;2023-02-17T04:56:17;57379.15;;;-140.43;92.80
30714;BME280;17465;47.934;33.430;2023-02-17T04:58:48;57379.15;;;-140.43;92.80
30714;BME280;17465;47.934;33.430;2023-02-17T05:01:18;57365.38;;;-140.43;91.63
30714;BME280;17465;47.934;33.430;2023-02-17T05:03:48;57388.68;;;-140.43;90.61
30714;BME280;17465;47.934;33.430;2023-02-17T05:06:19;57346.32;;;-140.43;90.68
30714;BME280;17465;47.934;33.430;2023-02-17T05:08:49;57346.32;;;-140.43;90.68
30714;BME280;17465;47.934;33.430;2023-02-17T05:11:21;57390.80;;;-140.43;90.66
30714;BME280;17465;47.934;33.430;2023-02-17T05:13:51;57390.80;;;-140.43;90.66
30714;BME280;17465;47.934;33.430;2023-02-17T05:16:21;57363.26;;;-140.43;90.84
30714;BME280;17465;47.934;33.430;2023-02-17T05:18:52;57389.74;;;-140.43;90.73
30714;BME280;17465;47.934;33.430;2023-02-17T05:21:24;57362.20;;;-140.43;90.61
30714;BME280;17465;47.934;33.430;2023-02-17T05:23:54;57413.04;;;-140.43;90.67
30714;BME280;17465;47.934;33.430;2023-02-17T05:26:25;57373.85;;;-140.43;90.29
30714;BME280;17465;47.934;33.430;2023-02-17T05:28:56;57360.08;;;-140.43;89.73
30714;BME280;17465;47.934;33.430;2023-02-17T05:31:26;57359.03;;;-140.43;89.41
30714;BME280;17465;47.934;33.430;2023-02-17T05:33:57;57359.03;;;-140.43;89.41
30714;BME280;17465;47.934;33.430;2023-02-17T05:36:27;57395.03;;;-140.43;89.97
30714;BME280;17465;47.934;33.430;2023-02-17T05:38:58;57347.38;;;-140.43;90.19
30714;BME280;17465;47.934;33.430;2023-02-17T05:41:28;57377.03;;;-140.43;89.91
30714;BME280;17465;47.934;33.430;2023-02-17T05:43:59;57375.97;;;-140.43;89.05
30714;BME280;17465;47.934;33.430;2023-02-17T05:46:30;57379.15;;;-140.43;89.03
30714;BME280;17465;47.934;33.430;2023-02-17T05:49:01;57373.85;;;-140.43;89.18
30714;BME280;17465;47.934;33.430;2023-02-17T05:51:32;57353.73;;;-140.43;89.52
30714;BME280;17465;47.934;33.430;2023-02-17T05:54:03;57353.73;;;-140.43;89.52
30714;BME280;17465;47.934;33.430;2023-02-17T05:56:34;57404.57;;;-140.43;88.90
30714;BME280;17465;47.934;33.430;2023-02-17T05:59:04;57351.61;;;-140.43;88.60
30714;BME280;17465;47.934;33.430;2023-02-17T06:01:35;57384.44;;;-140.43;89.42
30714;BME280;17465;47.934;33.430;2023-02-17T06:04:06;57368.55;;;-140.43;89.33
30714;BME280;17465;47.934;33.430;2023-02-17T06:06:38;57338.90;;;-140.43;89.25
30714;BME280;17465;47.934;33.430;2023-02-17T06:09:08;57338.90;;;-140.43;89.25
30714;BME280;17465;47.934;33.430;2023-02-17T06:11:40;57348.43;;;-140.43;89.62
30714;BME280;17465;47.934;33.430;2023-02-17T06:14:10;57348.43;;;-140.43;89.62
30714;BME280;17465;47.934;33.430;2023-02-17T06:16:41;57339.96;;;-140.43;89.27
30714;BME280;17465;47.934;33.430;2023-02-17T06:19:12;57365.38;;;-140.43;89.48
30714;BME280;17465;47.934;33.430;2023-02-17T06:21:43;57357.96;;;-140.43;89.05
30714;BME280;17465;47.934;33.430;2023-02-17T06:24:13;57381.27;;;-140.43;88.40
30714;BME280;17465;47.934;33.430;2023-02-17T06:26:44;57356.91;;;-140.43;88.26
30714;BME280;17465;47.934;33.430;2023-02-17T06:29:15;57359.03;;;-140.43;88.40
30714;BME280;17465;47.934;33.430;2023-02-17T06:31:45;57329.37;;;-140.43;87.61
30714;BME280;17465;47.934;33.430;2023-02-17T06:34:16;57371.73;;;-140.43;87.67
30714;BME280;17465;47.934;33.430;2023-02-17T06:36:46;57356.91;;;-140.43;87.52
30714;BME280;17465;47.934;33.430;2023-02-17T06:39:16;57356.91;;;-140.43;88.34
30714;BME280;17465;47.934;33.430;2023-02-17T06:41:48;57356.91;;;-140.43;88.34
30714;BME280;17465;47.934;33.430;2023-02-17T06:44:19;57365.38;;;-140.43;86.50
30714;BME280;17465;47.934;33.430;2023-02-17T06:46:58;57361.14;;;-140.43;86.59
30714;BME280;17465;47.934;33.430;2023-02-17T06:49:25;57351.61;;;-140.43;86.88
30714;BME280;17465;47.934;33.430;2023-02-17T06:51:59;57351.61;;;-140.43;86.88
30714;BME280;17465;47.934;33.430;2023-02-17T06:54:32;57353.73;;;-140.43;85.96
30714;BME280;17465;47.934;33.430;2023-02-17T06:57:03;57353.73;;;-140.43;85.86
30714;BME280;17465;47.934;33.430;2023-02-17T06:59:34;57346.32;;;-140.43;85.29
30714;BME280;17465;47.934;33.430;2023-02-17T07:02:05;57317.72;;;-140.43;85.33
30714;BME280;17465;47.934;33.430;2023-02-17T07:04:36;57324.07;;;-140.43;85.34
30714;BME280;17465;47.934;33.430;2023-02-17T07:07:07;57324.07;;;-140.43;85.34
30714;BME280;17465;47.934;33.430;2023-02-17T07:09:38;57356.91;;;-140.43;85.73
30714;BME280;17465;47.934;33.430;2023-02-17T07:12:10;57326.20;;;-140.43;85.48
30714;BME280;17465;47.934;33.430;2023-02-17T07:14:42;57346.32;;;-140.43;85.42
30714;BME280;17465;47.934;33.430;2023-02-17T07:17:13;57327.25;;;-140.43;85.95
30714;BME280;17465;47.934;33.430;2023-02-17T07:19:44;57326.20;;;-140.43;86.10
30714;BME280;17465;47.934;33.430;2023-02-17T07:22:15;57350.55;;;-140.43;85.46
30714;BME280;17465;47.934;33.430;2023-02-17T07:24:50;57342.08;;;-140.43;85.32
30714;BME280;17465;47.934;33.430;2023-02-17T07:27:47;57342.08;;;-140.43;85.32
30714;BME280;17465;47.934;33.430;2023-02-17T07:30:27;57343.14;;;-140.43;85.86
30714;BME280;17465;47.934;33.430;2023-02-17T07:33:08;57333.61;;;-140.43;86.05
30714;BME280;17465;47.934;33.430;2023-02-17T07:35:52;57333.61;;;-140.43;86.05
30714;BME280;17465;47.934;33.430;2023-02-17T07:38:27;57344.20;;;-140.43;85.51
30714;BME280;17465;47.934;33.430;2023-02-17T07:41:14;57342.08;;;-140.43;85.98
30714;BME280;17465;47.934;33.430;2023-02-17T07:43:47;57352.67;;;-140.43;86.69
30714;BME280;17465;47.934;33.430;2023-02-17T07:46:26;57312.43;;;-140.43;85.66
30714;BME280;17465;47.934;33.430;2023-02-17T07:48:58;57332.55;;;-140.43;85.44
30714;BME280;17465;47.934;33.430;2023-02-17T07:51:29;57332.55;;;-140.43;85.44
30714;BME280;17465;47.934;33.430;2023-02-17T07:54:00;57335.73;;;-140.43;86.54
30714;BME280;17465;47.934;33.430;2023-02-17T07:56:34;57336.79;;;-140.43;86.32
30714;BME280;17465;47.934;33.430;2023-02-17T07:59:12;57362.20;;;-140.43;87.53
30714;BME280;17465;47.934;33.430;2023-02-17T08:01:56;57362.20;;;-140.43;87.53
30714;BME280;17465;47.934;33.430;2023-02-17T08:04:22;57341.02;;;-140.43;87.09
30714;BME280;17465;47.934;33.430;2023-02-17T08:06:58;57327.25;;;-140.43;84.07
30714;BME280;17465;47.934;33.430;2023-02-17T08:09:24;57359.03;;;-140.43;82.04
30714;BME280;17465;47.934;33.430;2023-02-17T08:11:58;57338.90;;;-140.43;81.71
30714;BME280;17465;47.934;33.430;2023-02-17T08:14:29;57338.90;;;-140.43;81.71
30714;BME280;17465;47.934;33.430;2023-02-17T08:17:02;57362.20;;;-140.43;82.24
30714;BME280;17465;47.934;33.430;2023-02-17T08:19:37;57351.61;;;-140.43;82.73
30714;BME280;17465;47.934;33.430;2023-02-17T08:22:09;57338.90;;;-140.43;82.63
30714;BME280;17465;47.934;33.430;2023-02-17T08:24:40;57309.25;;;-140.43;83.49
30714;BME280;17465;47.934;33.430;2023-02-17T08:27:11;57309.25;;;-140.43;83.49
30714;BME280;17465;47.934;33.430;2023-02-17T08:29:45;57335.73;;;-140.43;83.52
30714;BME280;17465;47.934;33.430;2023-02-17T08:32:16;57325.14;;;-140.43;84.55
30714;BME280;17465;47.934;33.430;2023-02-17T08:34:53;57338.90;;;-140.43;79.12
30714;BME280;17465;47.934;33.430;2023-02-17T08:37:23;57327.25;;;-140.43;81.26
30714;BME280;17465;47.934;33.430;2023-02-17T08:39:54;57366.44;;;-140.43;79.89
30714;BME280;17465;47.934;33.430;2023-02-17T08:42:27;57366.44;;;-140.43;79.89
30714;BME280;17465;47.934;33.430;2023-02-17T08:44:58;57326.20;;;-140.43;79.75
30714;BME280;17465;47.934;33.430;2023-02-17T08:47:28;57317.72;;;-140.43;75.67
30714;BME280;17465;47.934;33.430;2023-02-17T08:49:59;57315.61;;;-140.43;74.14
30714;BME280;17465;47.934;33.430;2023-02-17T08:52:30;57321.96;;;-140.43;75.10
30714;BME280;17465;47.934;33.430;2023-02-17T08:55:00;57326.20;;;-140.43;71.77
30714;BME280;17465;47.934;33.430;2023-02-17T08:57:31;57275.36;;;-140.43;71.67
30714;BME280;17465;47.934;33.430;2023-02-17T09:00:20;57275.36;;;-140.43;71.67
30714;BME280;17465;47.934;33.430;2023-02-17T09:02:35;57282.77;;;-140.43;70.90
30714;BME280;17465;47.934;33.430;2023-02-17T09:05:06;57314.55;;;-140.43;67.44
30714;BME280;17465;47.934;33.430;2023-02-17T09:07:38;57337.84;;;-140.43;67.14
30714;BME280;17465;47.934;33.430;2023-02-17T09:10:11;57281.71;;;-140.43;68.64
30714;BME280;17465;47.934;33.430;2023-02-17T09:12:43;57296.54;;;-140.43;66.15
30714;BME280;17465;47.934;33.430;2023-02-17T09:15:14;57282.77;;;-140.43;63.38
30714;BME280;17465;47.934;33.430;2023-02-17T09:17:44;57320.90;;;-140.43;65.04
30714;BME280;17465;47.934;33.430;2023-02-17T09:20:15;57324.07;;;-140.43;67.00
30714;BME280;17465;47.934;33.430;2023-02-17T09:22:47;57324.07;;;-140.43;67.00
30714;BME280;17465;47.934;33.430;2023-02-17T09:25:19;57332.55;;;-140.43;66.95
30714;BME280;17465;47.934;33.430;2023-02-17T09:27:50;57328.31;;;-140.43;69.76
30714;BME280;17465;47.934;33.430;2023-02-17T09:30:21;57300.78;;;-140.43;66.32
30714;BME280;17465;47.934;33.430;2023-02-17T09:32:51;57308.19;;;-140.43;69.04
30714;BME280;17465;47.934;33.430;2023-02-17T09:35:25;57308.19;;;-140.43;69.04
30714;BME280;17465;47.934;33.430;2023-02-17T09:37:56;57288.07;;;-140.43;67.48
30714;BME280;17465;47.934;33.430;2023-02-17T09:40:47;57309.25;;;-140.43;60.65
30714;BME280;17465;47.934;33.430;2023-02-17T09:43:27;57308.19;;;-140.43;58.37
30714;BME280;17465;47.934;33.430;2023-02-17T09:45:54;57310.31;;;-140.43;60.66
30714;BME280;17465;47.934;33.430;2023-02-17T09:48:29;57311.37;;;-140.43;57.96
30714;BME280;17465;47.934;33.430;2023-02-17T09:51:09;57300.78;;;-140.43;58.50
30714;BME280;17465;47.934;33.430;2023-02-17T09:56:23;57339.96;;;-140.43;59.37
30714;BME280;17465;47.934;33.430;2023-02-17T09:58:57;57324.07;;;-140.43;59.90
30714;BME280;17465;47.934;33.430;2023-02-17T10:01:32;57344.20;;;-140.43;65.62
30714;BME280;17465;47.934;33.430;2023-02-17T10:04:11;57344.20;;;-140.43;65.62
30714;BME280;17465;47.934;33.430;2023-02-17T10:06:45;57310.31;;;-140.43;67.10
30714;BME280;17465;47.934;33.430;2023-02-17T10:09:26;57313.48;;;-140.43;66.46
30714;BME280;17465;47.934;33.430;2023-02-17T10:12:12;57328.31;;;-140.43;65.94
30714;BME280;17465;47.934;33.430;2023-02-17T10:14:58;57282.77;;;-140.43;66.55
30714;BME280;17465;47.934;33.430;2023-02-17T10:17:40;57313.48;;;-140.43;66.98
30714;BME280;17465;47.934;33.430;2023-02-17T10:20:25;57292.30;;;-140.43;66.57
30714;BME280;17465;47.934;33.430;2023-02-17T10:23:06;57294.42;;;-140.43;63.19
30714;BME280;17465;47.934;33.430;2023-02-17T10:28:55;57319.84;;;-140.43;61.61
30714;BME280;17465;47.934;33.430;2023-02-17T10:34:04;57274.30;;;-140.43;54.78
30714;BME280;17465;47.934;33.430;2023-02-17T10:36:59;57314.55;;;-140.43;56.73
30714;BME280;17465;47.934;33.430;2023-02-17T10:40:36;57295.48;;;-140.43;58.55
30714;BME280;17465;47.934;33.430;2023-02-17T10:42:36;57285.95;;;-140.43;61.05
30714;BME280;17465;47.934;33.430;2023-02-17T10:45:18;57285.95;;;-140.43;61.05
30714;BME280;17465;47.934;33.430;2023-02-17T10:47:47;57318.78;;;-140.43;61.49
30714;BME280;17465;47.934;33.430;2023-02-17T10:50:23;57313.48;;;-140.43;61.97
30714;BME280;17465;47.934;33.430;2023-02-17T10:52:57;57302.89;;;-140.43;62.68
30714;BME280;17465;47.934;33.430;2023-02-17T10:55:44;57300.78;;;-140.43;63.75
30714;BME280;17465;47.934;33.430;2023-02-17T10:58:30;57328.31;;;-140.43;61.60
30714;BME280;17465;47.934;33.430;2023-02-17T11:01:00;57316.66;;;-140.43;59.57
30714;BME280;17465;47.934;33.430;2023-02-17T11:03:32;57298.66;;;-140.43;60.09
30714;BME280;17465;47.934;33.430;2023-02-17T11:06:13;57299.72;;;-140.43;60.54
30714;BME280;17465;47.934;33.430;2023-02-17T11:08:40;57316.66;;;-140.43;60.31
30714;BME280;17465;47.934;33.430;2023-02-17T11:11:23;57320.90;;;-140.43;56.35
30714;BME280;17465;47.934;33.430;2023-02-17T11:16:45;57308.19;;;-140.43;58.50
30714;BME280;17465;47.934;33.430;2023-02-17T11:21:59;57289.13;;;-140.43;60.02
30714;BME280;17465;47.934;33.430;2023-02-17T11:24:32;57316.66;;;-140.43;59.20
30714;BME280;17465;47.934;33.430;2023-02-17T11:27:09;57323.02;;;-140.43;60.42
30714;BME280;17465;47.934;33.430;2023-02-17T11:29:40;57323.02;;;-140.43;60.42
30714;BME280;17465;47.934;33.430;2023-02-17T11:32:11;57301.84;;;-140.43;61.20
30714;BME280;17465;47.934;33.430;2023-02-17T11:34:44;57323.02;;;-140.43;61.86
30714;BME280;17465;47.934;33.430;2023-02-17T11:37:20;57323.02;;;-140.43;61.86
30714;BME280;17465;47.934;33.430;2023-02-17T11:39:54;57275.36;;;-140.43;63.78
30714;BME280;17465;47.934;33.430;2023-02-17T11:42:31;57275.36;;;-140.43;63.78
30714;BME280;17465;47.934;33.430;2023-02-17T11:45:26;57329.37;;;-140.43;64.55
30714;BME280;17465;47.934;33.430;2023-02-17T11:47:38;57326.20;;;-140.43;64.87
30714;BME280;17465;47.934;33.430;2023-02-17T11:56:21;57315.61;;;-140.43;64.52
30714;BME280;17465;47.934;33.430;2023-02-17T11:59:08;57332.55;;;-140.43;67.05
30714;BME280;17465;47.934;33.430;2023-02-17T12:04:29;57326.20;;;-140.43;67.75
30714;BME280;17465;47.934;33.430;2023-02-17T12:07:25;57327.25;;;-140.43;67.53
30714;BME280;17465;47.934;33.430;2023-02-17T12:27:42;57326.20;;;-140.43;70.66
30714;BME280;17465;47.934;33.430;2023-02-17T12:36:13;57336.79;;;-140.43;70.61
30714;BME280;17465;47.934;33.430;2023-02-17T12:38:50;57310.31;;;-140.43;71.90
30714;BME280;17465;47.934;33.430;2023-02-17T12:41:25;57329.37;;;-140.43;72.29
30714;BME280;17465;47.934;33.430;2023-02-17T12:44:12;57329.37;;;-140.43;72.29
30714;BME280;17465;47.934;33.430;2023-02-17T12:46:41;57320.90;;;-140.43;70.83
30714;BME280;17465;47.934;33.430;2023-02-17T12:49:30;57329.37;;;-140.43;70.18
30714;BME280;17465;47.934;33.430;2023-02-17T12:52:07;57313.48;;;-140.43;70.40
30714;BME280;17465;47.934;33.430;2023-02-17T12:54:53;57329.37;;;-140.43;71.27
30714;BME280;17465;47.934;33.430;2023-02-17T13:00:19;57331.49;;;-140.43;72.26
30714;BME280;17465;47.934;33.430;2023-02-17T13:03:01;57321.96;;;-140.43;72.26
30714;BME280;17465;47.934;33.430;2023-02-17T13:05:49;57314.55;;;-140.43;71.55
30714;BME280;17465;47.934;33.430;2023-02-17T13:11:02;57316.66;;;-140.43;70.86
30714;BME280;17465;47.934;33.430;2023-02-17T13:13:36;57335.73;;;-140.43;72.58
30714;BME280;17465;47.934;33.430;2023-02-17T13:16:11;57341.02;;;-140.43;72.89
30714;BME280;17465;47.934;33.430;2023-02-17T13:18:45;57308.19;;;-140.43;72.02
30714;BME280;17465;47.934;33.430;2023-02-17T13:24:03;57316.66;;;-140.43;72.55
30714;BME280;17465;47.934;33.430;2023-02-17T13:26:36;57332.55;;;-140.43;72.01
30714;BME280;17465;47.934;33.430;2023-02-17T13:32:07;57334.67;;;-140.43;72.67
30714;BME280;17465;47.934;33.430;2023-02-17T13:34:43;57331.49;;;-140.43;73.33
30714;BME280;17465;47.934;33.430;2023-02-17T13:37:16;57333.61;;;-140.43;72.97
30714;BME280;17465;47.934;33.430;2023-02-17T13:39:47;57338.90;;;-140.43;71.77
30714;BME280;17465;47.934;33.430;2023-02-17T13:42:35;57311.37;;;-140.43;72.26
30714;BME280;17465;47.934;33.430;2023-02-17T13:45:28;57327.25;;;-140.43;74.32
30714;BME280;17465;47.934;33.430;2023-02-17T13:48:25;57338.90;;;-140.43;74.66
30714;BME280;17465;47.934;33.430;2023-02-17T13:50:58;57319.84;;;-140.43;74.11
30714;BME280;17465;47.934;33.430;2023-02-17T13:53:32;57334.67;;;-140.43;74.45
30714;BME280;17465;47.934;33.430;2023-02-17T13:56:22;57360.08;;;-140.43;75.08
30714;BME280;17465;47.934;33.430;2023-02-17T13:58:44;57345.26;;;-140.43;75.04
30714;BME280;17465;47.934;33.430;2023-02-17T14:01:18;57348.43;;;-140.43;75.26
30714;BME280;17465;47.934;33.430;2023-02-17T14:03:51;57324.07;;;-140.43;75.55
30714;BME280;17465;47.934;33.430;2023-02-17T14:06:30;57329.37;;;-140.43;76.62
30714;BME280;17465;47.934;33.430;2023-02-17T14:11:44;57336.79;;;-140.43;76.98
30714;BME280;17465;47.934;33.430;2023-02-17T14:14:14;57329.37;;;-140.43;78.10
30714;BME280;17465;47.934;33.430;2023-02-17T14:19:27;57330.43;;;-140.43;79.36
30714;BME280;17465;47.934;33.430;2023-02-17T14:22:02;57352.67;;;-140.43;80.73
30714;BME280;17465;47.934;33.430;2023-02-17T14:24:36;57347.38;;;-140.43;80.20
30714;BME280;17465;47.934;33.430;2023-02-17T14:27:09;57352.67;;;-140.43;81.11
30714;BME280;17465;47.934;33.430;2023-02-17T14:29:45;57325.14;;;-140.43;80.87
30714;BME280;17465;47.934;33.430;2023-02-17T14:32:26;57326.20;;;-140.43;79.81
30714;BME280;17465;47.934;33.430;2023-02-17T14:37:41;57325.14;;;-140.43;78.73
30714;BME280;17465;47.934;33.430;2023-02-17T14:40:19;57347.38;;;-140.43;79.58
30714;BME280;17465;47.934;33.430;2023-02-17T14:42:50;57347.38;;;-140.43;79.58
30714;BME280;17465;47.934;33.430;2023-02-17T14:45:20;57335.73;;;-140.43;79.33